Time;durP1;ratioP1;P1;durP2;ratioP2;P2;SDS_P1;SDS_P2;PMS_P1;PMS_P2;Temp;Humidity;BMP_temperature;BMP_pressure;BME280_temperature;BME280_humidity;BME280_pressure;Samples;Min_cycle;Max_cycle;Signal;HPM_P1;HPM_P2
2022/08/30 00:01:01;;;;;;;0.73;0.73;;;22.70;65.60;;;;;;5031461;28;44684;-64
2022/08/30 00:02:01;;;;;;;0.85;0.85;;;22.70;65.70;;;;;;5038869;28;44016;-64
2022/08/30 00:04:29;;;;;;;0.90;0.90;;;22.70;65.60;;;;;;5032719;28;44072;-64
2022/08/30 00:06:56;;;;;;;0.80;0.80;;;22.70;65.70;;;;;;5040416;28;43515;-64
2022/08/30 00:09:24;;;;;;;1.00;1.00;;;22.70;65.70;;;;;;5028305;28;44089;-64
2022/08/30 00:11:51;;;;;;;1.00;1.00;;;22.60;65.60;;;;;;5031041;28;43943;-64
2022/08/30 00:14:19;;;;;;;0.95;0.95;;;22.60;65.60;;;;;;5040251;28;43497;-64
2022/08/30 00:16:46;;;;;;;0.80;0.80;;;22.60;65.60;;;;;;5041123;28;43453;-64
2022/08/30 00:19:14;;;;;;;0.90;0.90;;;22.60;65.70;;;;;;5029231;28;44997;-64
2022/08/30 00:21:41;;;;;;;0.80;0.80;;;22.60;65.70;;;;;;5031193;28;43697;-64
2022/08/30 00:24:09;;;;;;;0.95;0.90;;;22.60;65.70;;;;;;5033775;28;43490;-64
2022/08/30 00:26:36;;;;;;;0.70;0.70;;;22.60;65.70;;;;;;5041771;28;43567;-64
2022/08/30 00:29:04;;;;;;;1.05;1.00;;;22.60;65.70;;;;;;5056504;28;44671;-63
2022/08/30 00:31:31;;;;;;;0.80;0.70;;;22.60;65.70;;;;;;5044181;28;43692;-64
2022/08/30 00:33:59;;;;;;;0.95;0.95;;;22.60;65.70;;;;;;5043545;28;43453;-64
2022/08/30 00:36:26;;;;;;;0.93;0.93;;;22.60;65.70;;;;;;5035284;28;43673;-64
2022/08/30 00:38:54;;;;;;;0.80;0.80;;;22.60;65.70;;;;;;5033448;28;44715;-64
2022/08/30 00:41:21;;;;;;;1.15;1.05;;;22.60;65.70;;;;;;5053008;28;43833;-64
2022/08/30 00:43:49;;;;;;;0.88;0.88;;;22.60;65.70;;;;;;5041998;28;43440;-64
2022/08/30 00:46:16;;;;;;;1.30;1.00;;;22.60;65.70;;;;;;5035458;28;43433;-64
2022/08/30 00:48:47;;;;;;;0.70;0.70;;;22.50;65.70;;;;;;5035329;28;43754;-64
2022/08/30 00:51:16;;;;;;;0.88;0.88;;;22.50;65.70;;;;;;5041254;28;43515;-64
2022/08/30 00:53:48;;;;;;;0.80;0.80;;;22.50;65.70;;;;;;5038814;28;43410;-64
2022/08/30 00:56:18;;;;;;;1.27;1.17;;;22.50;65.70;;;;;;5037344;28;43500;-64
2022/08/30 00:58:52;;;;;;;0.77;0.70;;;22.50;65.70;;;;;;5044571;28;44947;-64
2022/08/30 01:01:20;;;;;;;1.33;0.90;;;22.50;65.70;;;;;;5041969;28;43494;-64
2022/08/30 01:03:48;;;;;;;0.80;0.80;;;22.50;65.70;;;;;;5036236;28;43486;-64
2022/08/30 01:06:16;;;;;;;0.88;0.88;;;22.50;65.70;;;;;;5038773;28;43482;-64
2022/08/30 01:08:45;;;;;;;0.80;0.80;;;22.50;65.70;;;;;;5037573;28;44996;-64
2022/08/30 01:11:17;;;;;;;0.70;0.70;;;22.50;65.70;;;;;;5037444;28;43988;-64
2022/08/30 01:13:46;;;;;;;0.85;0.82;;;22.50;65.70;;;;;;5043773;28;43484;-64
2022/08/30 01:16:14;;;;;;;0.82;0.80;;;22.50;65.70;;;;;;5035359;28;43562;-64
2022/08/30 01:18:42;;;;;;;0.80;0.80;;;22.50;65.70;;;;;;5036392;28;44894;-64
2022/08/30 01:21:39;;;;;;;0.95;0.95;;;22.50;65.80;;;;;;5041922;28;43455;-64
2022/08/30 01:24:08;;;;;;;1.13;0.82;;;22.50;65.70;;;;;;5040465;28;43524;-64
2022/08/30 01:26:36;;;;;;;0.80;0.80;;;22.50;65.70;;;;;;5034952;28;43553;-64
2022/08/30 01:29:09;;;;;;;0.70;0.70;;;22.50;65.80;;;;;;5042146;28;43790;-63
2022/08/30 01:31:36;;;;;;;0.65;0.65;;;22.50;65.80;;;;;;5037939;28;43495;-64
2022/08/30 01:34:06;;;;;;;1.00;0.90;;;22.50;65.80;;;;;;5034182;28;43408;-64
2022/08/30 01:36:36;;;;;;;1.08;0.95;;;22.50;65.80;;;;;;5034156;28;43445;-64
2022/08/30 01:39:13;;;;;;;0.80;0.80;;;22.40;65.70;;;;;;5040555;28;44794;-64
2022/08/30 01:41:42;;;;;;;0.83;0.83;;;22.40;65.80;;;;;;5031784;28;43696;-64
2022/08/30 01:44:11;;;;;;;0.95;0.93;;;22.40;65.80;;;;;;5034139;28;43443;-64
2022/08/30 01:46:44;;;;;;;0.90;0.90;;;22.40;65.80;;;;;;5029916;28;43617;-64
2022/08/30 01:49:14;;;;;;;0.98;0.90;;;22.40;65.80;;;;;;5038906;28;43886;-64
2022/08/30 01:51:43;;;;;;;0.90;0.90;;;22.40;65.70;;;;;;5043226;28;43983;-64
2022/08/30 01:54:11;;;;;;;0.82;0.82;;;22.40;66.10;;;;;;5042142;28;43474;-64
2022/08/30 01:56:38;;;;;;;0.80;0.80;;;22.40;65.80;;;;;;5037665;28;43444;-64
2022/08/30 01:59:06;;;;;;;0.65;0.65;;;22.40;65.80;;;;;;5043523;28;44718;-64
2022/08/30 02:01:35;;;;;;;0.80;0.80;;;22.40;65.80;;;;;;5032406;28;43420;-64
2022/08/30 02:04:04;;;;;;;1.00;0.82;;;22.40;65.80;;;;;;5036687;28;43587;-64
2022/08/30 02:06:32;;;;;;;0.80;0.80;;;22.40;65.80;;;;;;5041365;28;43532;-64
2022/08/30 02:09:00;;;;;;;1.30;0.75;;;22.40;65.80;;;;;;5033047;28;44678;-63
2022/08/30 02:11:28;;;;;;;0.70;0.70;;;22.40;65.80;;;;;;5040658;28;43494;-64
2022/08/30 02:13:55;;;;;;;0.80;0.80;;;22.40;65.80;;;;;;5041470;28;43437;-64
2022/08/30 02:16:24;;;;;;;0.93;0.93;;;22.40;65.80;;;;;;5057451;28;43454;-64
2022/08/30 02:18:53;;;;;;;0.80;0.80;;;22.40;65.80;;;;;;5032654;28;44983;-64
2022/08/30 02:21:21;;;;;;;0.68;0.68;;;22.40;65.80;;;;;;5031683;28;43958;-64
2022/08/30 02:23:49;;;;;;;0.80;0.80;;;22.40;65.80;;;;;;5034521;28;43476;-64
2022/08/30 02:26:17;;;;;;;0.77;0.77;;;22.30;65.70;;;;;;5041116;28;43658;-64
2022/08/30 02:28:46;;;;;;;1.20;1.05;;;22.30;65.70;;;;;;5041946;28;43786;-64
2022/08/30 02:31:17;;;;;;;;;;;22.40;65.80;;;;;;5043606;28;43751;-64
2022/08/30 02:33:50;;;;;;;1.05;0.80;;;22.30;65.80;;;;;;5040448;28;43523;-64
2022/08/30 02:36:19;;;;;;;0.80;0.80;;;22.30;65.90;;;;;;5042290;28;43493;-64
2022/08/30 02:38:47;;;;;;;1.02;1.02;;;22.30;65.80;;;;;;5032346;28;45276;-64
2022/08/30 02:41:16;;;;;;;0.70;0.70;;;22.30;65.80;;;;;;5034874;28;43971;-64
2022/08/30 02:43:43;;;;;;;0.77;0.77;;;22.30;65.80;;;;;;5036709;28;43482;-64
2022/08/30 02:46:11;;;;;;;1.10;0.80;;;22.30;65.80;;;;;;5034310;28;43421;-64
2022/08/30 02:48:39;;;;;;;1.00;1.00;;;22.30;65.80;;;;;;5029811;28;44708;-64
2022/08/30 02:51:10;;;;;;;0.90;0.90;;;22.30;66.40;;;;;;5034880;28;43975;-64
2022/08/30 02:53:39;;;;;;;0.80;0.80;;;22.30;65.80;;;;;;5040731;28;43444;-64
2022/08/30 02:56:07;;;;;;;0.80;0.80;;;22.30;65.80;;;;;;5032829;28;43563;-64
2022/08/30 02:58:36;;;;;;;0.70;0.70;;;22.30;65.80;;;;;;5033963;28;44984;-64
2022/08/30 03:01:04;;;;;;;1.10;0.90;;;22.30;66.30;;;;;;5035215;28;43699;-64
2022/08/30 03:03:32;;;;;;;0.80;0.80;;;22.30;65.80;;;;;;5035802;28;43443;-64
2022/08/30 03:06:02;;;;;;;0.80;0.80;;;22.30;65.80;;;;;;5033068;28;43431;-64
2022/08/30 03:08:30;;;;;;;0.80;0.80;;;22.30;65.80;;;;;;5049412;28;44808;-64
2022/08/30 03:10:59;;;;;;;0.82;0.82;;;22.30;65.80;;;;;;5038280;28;43486;-64
2022/08/30 03:13:26;;;;;;;0.75;0.75;;;22.30;65.80;;;;;;5041173;28;43462;-64
2022/08/30 03:15:54;;;;;;;0.80;0.70;;;22.30;65.80;;;;;;5032477;28;43497;-64
2022/08/30 03:18:23;;;;;;;0.90;0.85;;;22.30;65.80;;;;;;5032392;28;43786;-64
2022/08/30 03:20:50;;;;;;;0.90;0.90;;;22.30;65.80;;;;;;5035892;28;43443;-64
2022/08/30 03:23:22;;;;;;;0.55;0.55;;;22.30;65.80;;;;;;5042803;28;43431;-64
2022/08/30 03:25:50;;;;;;;0.77;0.77;;;22.30;65.80;;;;;;5031515;28;43565;-64
2022/08/30 03:28:18;;;;;;;0.80;0.80;;;22.20;65.70;;;;;;5041639;28;44206;-64
2022/08/30 03:30:46;;;;;;;0.80;0.80;;;22.30;65.80;;;;;;5039406;28;43989;-64
2022/08/30 03:33:14;;;;;;;0.77;0.77;;;22.20;65.80;;;;;;5034487;28;43459;-64
2022/08/30 03:35:44;;;;;;;0.90;0.90;;;22.20;65.80;;;;;;5036918;28;43531;-64
2022/08/30 03:38:12;;;;;;;0.80;0.80;;;22.20;65.70;;;;;;5034754;28;43959;-64
2022/08/30 03:40:39;;;;;;;0.90;0.90;;;22.20;65.70;;;;;;5036487;28;43691;-64
2022/08/30 03:43:08;;;;;;;0.75;0.75;;;22.20;65.80;;;;;;5034476;28;43445;-64
2022/08/30 03:45:35;;;;;;;0.77;0.77;;;22.20;65.80;;;;;;5028367;28;43575;-64
2022/08/30 03:48:03;;;;;;;1.08;0.95;;;22.20;65.80;;;;;;5041985;28;43791;-64
2022/08/30 03:50:31;;;;;;;1.60;0.80;;;22.20;65.70;;;;;;5038055;28;43652;-64
2022/08/30 03:53:00;;;;;;;1.00;0.90;;;22.20;65.80;;;;;;5042032;28;43495;-64
2022/08/30 03:55:29;;;;;;;1.05;0.80;;;22.20;65.80;;;;;;5034231;28;43423;-64
2022/08/30 03:57:57;;;;;;;0.70;0.70;;;22.20;65.80;;;;;;5039622;28;44935;-64
2022/08/30 04:00:25;;;;;;;0.70;0.70;;;22.20;65.80;;;;;;5027988;28;44066;-64
2022/08/30 04:02:52;;;;;;;0.60;0.60;;;22.20;65.70;;;;;;5035945;28;43385;-64
2022/08/30 04:05:20;;;;;;;0.82;0.82;;;22.20;65.80;;;;;;5041026;28;43601;-64
2022/08/30 04:07:48;;;;;;;1.27;1.08;;;22.20;65.80;;;;;;5038811;28;44727;-64
2022/08/30 04:10:15;;;;;;;0.98;0.70;;;22.10;65.70;;;;;;5028833;28;43566;-64
2022/08/30 04:12:43;;;;;;;0.70;0.70;;;22.20;65.80;;;;;;5040900;28;43431;-63
2022/08/30 04:15:17;;;;;;;0.90;0.90;;;22.10;65.70;;;;;;5040153;28;43458;-64
2022/08/30 04:17:46;;;;;;;0.90;0.90;;;22.10;65.70;;;;;;5038599;28;44911;-64
2022/08/30 04:20:13;;;;;;;0.80;0.80;;;22.20;65.80;;;;;;5025673;28;43492;-64
2022/08/30 04:22:41;;;;;;;0.65;0.65;;;22.20;65.80;;;;;;5031883;28;43451;-64
2022/08/30 04:25:09;;;;;;;0.73;0.73;;;22.10;65.70;;;;;;5038101;28;43598;-64
2022/08/30 04:27:44;;;;;;;0.82;0.77;;;22.20;65.80;;;;;;5039358;28;44893;-64
2022/08/30 04:30:13;;;;;;;0.85;0.85;;;22.10;65.70;;;;;;5034801;28;43911;-64
2022/08/30 04:32:41;;;;;;;1.00;1.00;;;22.10;65.70;;;;;;5039724;28;43483;-64
2022/08/30 04:35:10;;;;;;;1.08;0.88;;;22.10;65.70;;;;;;5038243;28;43558;-64
2022/08/30 04:37:38;;;;;;;0.63;0.63;;;22.20;65.80;;;;;;5027073;28;44707;-64
2022/08/30 04:40:06;;;;;;;0.60;0.60;;;22.20;65.80;;;;;;5033952;28;43708;-63
2022/08/30 04:42:35;;;;;;;1.38;0.90;;;22.10;65.70;;;;;;5039054;28;43468;-63
2022/08/30 04:45:06;;;;;;;1.05;0.98;;;22.10;65.70;;;;;;5038265;28;44218;-63
2022/08/30 04:47:34;;;;;;;0.75;0.75;;;22.10;65.70;;;;;;5037025;28;45381;-63
2022/08/30 04:50:02;;;;;;;0.95;0.90;;;22.10;65.80;;;;;;5025942;28;43679;-63
2022/08/30 04:52:30;;;;;;;0.63;0.63;;;22.10;65.80;;;;;;5039848;28;43524;-63
2022/08/30 04:54:58;;;;;;;1.55;0.85;;;22.10;65.80;;;;;;5041187;28;43640;-63
2022/08/30 04:57:26;;;;;;;0.70;0.70;;;22.10;65.80;;;;;;5025728;28;44955;-63
2022/08/30 04:59:54;;;;;;;0.80;0.80;;;22.10;65.80;;;;;;5032305;28;43968;-63
2022/08/30 05:02:22;;;;;;;0.85;0.85;;;22.10;65.80;;;;;;5038141;28;43463;-63
2022/08/30 05:07:40;;;;;;;0.77;0.77;;;22.10;65.80;;;;;;5033924;28;44144;-63
2022/08/30 05:10:08;;;;;;;0.73;0.73;;;22.10;65.80;;;;;;5036172;28;43981;-64
2022/08/30 05:12:38;;;;;;;0.70;0.70;;;22.00;65.70;;;;;;5039427;28;43430;-64
2022/08/30 05:15:07;;;;;;;1.05;0.90;;;22.10;65.80;;;;;;5024619;28;43610;-63
2022/08/30 05:17:37;;;;;;;0.93;0.93;;;22.00;65.70;;;;;;5031818;28;44982;-63
2022/08/30 05:20:06;;;;;;;1.13;0.90;;;22.10;65.80;;;;;;5040352;28;43419;-64
2022/08/30 05:22:40;;;;;;;0.90;0.90;;;22.00;65.70;;;;;;5040764;28;43580;-63
2022/08/30 05:25:08;;;;;;;0.73;0.73;;;22.00;65.70;;;;;;5028680;28;43482;-64
2022/08/30 05:27:40;;;;;;;1.00;0.85;;;22.00;65.80;;;;;;5041180;28;44788;-63
2022/08/30 05:30:09;;;;;;;0.90;0.90;;;22.00;65.70;;;;;;5041228;28;43717;-64
2022/08/30 05:32:36;;;;;;;0.70;0.70;;;22.00;65.70;;;;;;5041257;28;43514;-64
2022/08/30 05:35:05;;;;;;;0.98;0.88;;;22.00;65.70;;;;;;5030295;28;43507;-63
2022/08/30 05:37:33;;;;;;;0.85;0.85;;;22.00;65.70;;;;;;5038949;28;44290;-63
2022/08/30 05:40:00;;;;;;;1.05;0.73;;;22.00;65.70;;;;;;5042115;28;43654;-63
2022/08/30 05:42:28;;;;;;;0.80;0.80;;;22.00;65.90;;;;;;5028973;28;43403;-63
2022/08/30 05:44:56;;;;;;;0.85;0.82;;;22.00;65.80;;;;;;5030435;28;43548;-63
2022/08/30 05:47:24;;;;;;;0.70;0.70;;;22.00;65.80;;;;;;5034736;28;43800;-63
2022/08/30 05:49:52;;;;;;;0.85;0.85;;;22.00;65.90;;;;;;5042034;28;43684;-63
2022/08/30 05:52:20;;;;;;;0.80;0.80;;;22.00;65.90;;;;;;5031553;28;43543;-63
2022/08/30 05:54:53;;;;;;;0.70;0.70;;;22.00;65.80;;;;;;5037948;28;43622;-63
2022/08/30 05:57:21;;;;;;;0.93;0.93;;;22.00;65.80;;;;;;5040293;28;44866;-63
2022/08/30 05:59:49;;;;;;;0.93;0.88;;;22.00;65.80;;;;;;5042384;28;43462;-63
2022/08/30 06:02:17;;;;;;;0.70;0.70;;;22.00;65.80;;;;;;5028744;28;43433;-64
2022/08/30 06:04:44;;;;;;;0.77;0.77;;;22.00;65.80;;;;;;5040368;28;43482;-64
2022/08/30 06:07:12;;;;;;;0.88;0.85;;;22.00;65.80;;;;;;5040157;28;44055;-63
2022/08/30 06:09:43;;;;;;;0.80;0.80;;;22.00;65.80;;;;;;5029316;28;43725;-63
2022/08/30 06:12:10;;;;;;;0.70;0.70;;;22.00;65.80;;;;;;5042204;28;43525;-63
2022/08/30 06:14:38;;;;;;;0.60;0.60;;;22.00;65.80;;;;;;5042435;28;43580;-64
2022/08/30 06:17:06;;;;;;;0.77;0.55;;;22.00;65.80;;;;;;5040831;28;44709;-64
2022/08/30 06:19:33;;;;;;;0.80;0.80;;;22.00;65.80;;;;;;5028965;28;43818;-63
2022/08/30 06:22:01;;;;;;;0.75;0.75;;;22.00;65.80;;;;;;5038616;28;43502;-63
2022/08/30 06:24:28;;;;;;;0.70;0.70;;;22.00;65.80;;;;;;5037049;28;43425;-63
2022/08/30 06:27:16;;;;;;;1.33;0.95;;;21.90;65.70;;;;;;5040729;28;44710;-64
2022/08/30 06:29:44;;;;;;;0.65;0.65;;;21.90;65.70;;;;;;5039317;28;43435;-64
2022/08/30 06:32:11;;;;;;;1.30;0.80;;;22.00;65.80;;;;;;5036951;28;43490;-63
2022/08/30 06:34:38;;;;;;;0.80;0.77;;;22.00;65.80;;;;;;5039319;28;43632;-63
2022/08/30 06:37:06;;;;;;;0.70;0.70;;;21.90;65.70;;;;;;5042326;28;45091;-63
2022/08/30 06:39:35;;;;;;;0.77;0.60;;;22.00;65.80;;;;;;5030905;28;43980;-64
2022/08/30 06:42:02;;;;;;;1.23;0.93;;;21.90;65.80;;;;;;5037118;28;43532;-64
2022/08/30 06:44:32;;;;;;;0.70;0.70;;;22.00;65.80;;;;;;5039312;28;43578;-64
2022/08/30 06:47:00;;;;;;;0.60;0.60;;;22.00;65.80;;;;;;5029145;28;44908;-64
2022/08/30 06:49:27;;;;;;;0.75;0.75;;;21.90;65.80;;;;;;5028777;28;43421;-64
2022/08/30 06:51:55;;;;;;;0.80;0.80;;;21.90;65.70;;;;;;5036288;28;43485;-64
2022/08/30 06:54:23;;;;;;;0.70;0.60;;;21.90;65.80;;;;;;5043545;28;43635;-64
2022/08/30 06:56:50;;;;;;;0.68;0.68;;;21.90;65.70;;;;;;5030931;28;44256;-64
2022/08/30 06:59:26;;;;;;;0.88;0.88;;;21.90;65.70;;;;;;5030549;28;43620;-64
2022/08/30 07:01:54;;;;;;;0.60;0.60;;;21.90;65.70;;;;;;5039865;28;43528;-64
2022/08/30 07:04:22;;;;;;;0.80;0.80;;;21.90;65.80;;;;;;5030536;28;43498;-64
2022/08/30 07:06:49;;;;;;;0.85;0.85;;;21.90;65.70;;;;;;5038752;28;44983;-64
2022/08/30 07:09:18;;;;;;;0.88;0.70;;;21.90;65.80;;;;;;5030512;28;43459;-63
2022/08/30 07:11:49;;;;;;;0.77;0.77;;;21.90;65.70;;;;;;5040496;28;43580;-64
2022/08/30 07:14:17;;;;;;;1.35;1.10;;;21.90;65.70;;;;;;5028494;28;43473;-64
2022/08/30 07:16:46;;;;;;;0.57;0.57;;;21.90;65.70;;;;;;5030109;28;44168;-64
2022/08/30 07:19:19;;;;;;;0.60;0.60;;;21.90;65.70;;;;;;5034018;28;43957;-64
2022/08/30 07:21:48;;;;;;;1.05;0.90;;;21.90;65.70;;;;;;5041065;28;43461;-64
2022/08/30 07:24:16;;;;;;;0.70;0.70;;;21.90;65.70;;;;;;5029909;28;43486;-64
2022/08/30 07:26:50;;;;;;;0.75;0.75;;;21.90;65.70;;;;;;5040788;28;44680;-64
2022/08/30 07:29:20;;;;;;;0.82;0.65;;;21.90;65.60;;;;;;5039158;28;43504;-63
2022/08/30 07:31:48;;;;;;;0.75;0.75;;;21.90;65.60;;;;;;5041258;28;43474;-64
2022/08/30 07:34:17;;;;;;;0.50;0.50;;;21.90;65.70;;;;;;5031598;28;43586;-64
2022/08/30 07:36:48;;;;;;;0.75;0.75;;;21.90;65.70;;;;;;5030838;28;44996;-64
2022/08/30 07:39:16;;;;;;;0.90;0.90;;;21.90;65.70;;;;;;5039275;28;43653;-63
2022/08/30 07:41:43;;;;;;;0.70;0.70;;;21.90;65.70;;;;;;5030080;28;43385;-65
2022/08/30 07:44:11;;;;;;;0.93;0.93;;;21.90;65.70;;;;;;5032061;28;43420;-64
2022/08/30 07:46:39;;;;;;;0.70;0.70;;;21.90;65.70;;;;;;5032094;28;44692;-64
2022/08/30 07:49:08;;;;;;;0.90;0.90;;;21.90;65.70;;;;;;5040958;28;43443;-63
2022/08/30 07:51:38;;;;;;;0.90;0.90;;;21.90;65.70;;;;;;5029838;28;43367;-64
2022/08/30 07:54:06;;;;;;;0.80;0.80;;;21.90;65.70;;;;;;5040622;28;43554;-64
2022/08/30 07:56:34;;;;;;;0.80;0.80;;;21.90;65.70;;;;;;5033827;28;43823;-64
2022/08/30 07:59:01;;;;;;;1.13;1.02;;;21.90;65.70;;;;;;5040990;28;43439;-63
2022/08/30 08:01:29;;;;;;;1.75;1.00;;;21.90;65.70;;;;;;5030331;28;43542;-65
2022/08/30 08:03:57;;;;;;;0.80;0.80;;;21.90;66.00;;;;;;5034317;28;43480;-65
2022/08/30 08:06:26;;;;;;;1.30;1.20;;;21.90;65.70;;;;;;5038509;28;43815;-64
2022/08/30 08:09:01;;;;;;;2.30;1.30;;;21.90;65.80;;;;;;5030962;28;43838;-63
2022/08/30 08:11:29;;;;;;;1.33;1.17;;;21.90;65.80;;;;;;5038729;28;43477;-64
2022/08/30 08:14:00;;;;;;;1.75;1.60;;;21.90;65.80;;;;;;5040621;28;43484;-64
2022/08/30 08:16:30;;;;;;;2.17;1.27;;;21.90;65.90;;;;;;5040005;28;45164;-64
2022/08/30 08:18:57;;;;;;;2.78;1.30;;;21.90;65.80;;;;;;5029579;28;43458;-63
2022/08/30 08:21:25;;;;;;;2.08;1.35;;;21.90;65.80;;;;;;5038896;28;43488;-64
2022/08/30 08:23:55;;;;;;;2.55;1.45;;;21.90;65.80;;;;;;5032389;28;43491;-64
2022/08/30 08:26:22;;;;;;;1.42;1.33;;;21.90;65.80;;;;;;5040832;28;44068;-65
2022/08/30 08:28:50;;;;;;;2.97;1.50;;;21.90;65.90;;;;;;5040355;28;43430;-64
2022/08/30 08:31:23;;;;;;;4.15;1.58;;;21.90;65.90;;;;;;5032521;28;43463;-63
2022/08/30 08:34:01;;;;;;;1.65;1.50;;;21.90;66.60;;;;;;5038883;28;43454;-64
2022/08/30 08:36:30;;;;;;;1.70;1.43;;;22.00;65.90;;;;;;5030697;28;43793;-64
2022/08/30 08:38:59;;;;;;;2.45;1.42;;;22.00;65.80;;;;;;5038673;28;43410;-63
2022/08/30 08:41:54;;;;;;;2.50;1.60;;;22.00;65.70;;;;;;5021207;28;43448;-64
2022/08/30 08:44:49;;;;;;;2.47;1.90;;;21.90;65.60;;;;;;5032442;28;43459;-64
2022/08/30 08:47:36;;;;;;;3.67;2.05;;;22.00;65.80;;;;;;5027612;28;44690;-64
2022/08/30 08:50:10;;;;;;;2.65;1.80;;;22.00;65.80;;;;;;5049685;28;43503;-63
2022/08/30 08:55:48;;;;;;;3.85;1.80;;;22.00;65.70;;;;;;5031149;28;44139;-63
2022/08/30 08:58:27;;;;;;;4.78;1.80;;;22.00;65.70;;;;;;5032932;28;44931;-64
2022/08/30 09:00:57;;;;;;;2.13;1.70;;;22.00;65.60;;;;;;5041277;28;43788;-63
2022/08/30 09:03:27;;;;;;;3.08;1.63;;;22.00;65.70;;;;;;5039687;28;43392;-64
2022/08/30 09:05:55;;;;;;;2.57;1.80;;;22.00;65.60;;;;;;5045037;28;43429;-63
2022/08/30 09:08:22;;;;;;;2.42;1.77;;;22.10;65.70;;;;;;5033995;28;43791;-64
2022/08/30 09:10:55;;;;;;;3.40;1.60;;;22.00;65.60;;;;;;5034101;28;43554;-63
2022/08/30 09:13:24;;;;;;;2.00;1.80;;;22.10;65.60;;;;;;5041694;28;43487;-63
2022/08/30 09:15:56;;;;;;;2.53;1.90;;;22.10;65.60;;;;;;5033401;28;43537;-63
2022/08/30 09:18:46;;;;;;;2.47;1.35;;;22.10;65.60;;;;;;5042635;28;43809;-62
2022/08/30 09:21:23;;;;;;;3.20;1.75;;;22.20;65.60;;;;;;5037385;28;44401;-63
2022/08/30 09:23:58;;;;;;;1.73;1.52;;;22.10;65.50;;;;;;5043381;28;43422;-63
2022/08/30 09:26:34;;;;;;;1.58;1.48;;;22.10;65.40;;;;;;5042210;28;43509;-63
2022/08/30 09:29:03;;;;;;;3.15;1.63;;;22.10;65.40;;;;;;5038577;28;44056;-63
2022/08/30 09:31:46;;;;;;;2.23;1.83;;;22.10;65.30;;;;;;5040894;28;43532;-64
2022/08/30 09:34:19;;;;;;;2.50;1.80;;;22.10;65.30;;;;;;5043306;28;43547;-63
2022/08/30 09:36:52;;;;;;;2.05;1.80;;;22.10;65.30;;;;;;5039345;28;43527;-63
2022/08/30 09:39:32;;;;;;;2.45;1.88;;;22.20;65.30;;;;;;5036668;28;44972;-62
2022/08/30 09:42:18;;;;;;;2.10;1.52;;;22.20;65.90;;;;;;5041934;28;43928;-63
2022/08/30 09:44:46;;;;;;;3.17;1.63;;;22.20;66.00;;;;;;5027356;28;43531;-63
2022/08/30 09:47:27;;;;;;;2.83;1.55;;;22.20;65.40;;;;;;5032662;28;44404;-63
2022/08/30 09:50:05;;;;;;;3.58;2.10;;;22.20;65.20;;;;;;5039304;28;43902;-63
2022/08/30 09:52:41;;;;;;;2.08;1.60;;;22.20;65.30;;;;;;5043842;28;43427;-63
2022/08/30 09:55:30;;;;;;;2.22;1.77;;;22.30;65.40;;;;;;5035318;28;43364;-63
2022/08/30 09:58:15;;;;;;;2.70;1.60;;;22.30;65.40;;;;;;5039005;28;43487;-63
2022/08/30 10:00:59;;;;;;;2.72;1.67;;;22.30;65.40;;;;;;5035764;28;44056;-62
2022/08/30 10:03:33;;;;;;;2.17;1.80;;;22.30;65.50;;;;;;5041847;28;43435;-63
2022/08/30 10:06:39;;;;;;;2.55;1.83;;;22.30;65.40;;;;;;5040336;28;43455;-63
2022/08/30 10:09:14;;;;;;;;;;;22.30;65.50;;;;;;5043752;28;43549;-62
2022/08/30 10:11:47;;;;;;;;;;;22.30;65.40;;;;;;5029128;28;43972;-62
2022/08/30 10:14:20;;;;;;;;;;;22.20;65.50;;;;;;5042738;28;43495;-63
2022/08/30 10:16:53;;;;;;;;;;;22.20;65.50;;;;;;5038950;28;43462;-63
2022/08/30 10:19:24;;;;;;;;;;;22.30;65.40;;;;;;5040243;28;43536;-62
2022/08/30 10:22:00;;;;;;;;;;;22.30;65.30;;;;;;5026958;28;45067;-62
2022/08/30 10:24:39;;;;;;;;;;;22.30;65.30;;;;;;5031936;28;43791;-63
2022/08/30 10:27:13;;;;;;;;;;;22.30;65.20;;;;;;5039845;28;43423;-63
2022/08/30 10:29:58;;;;;;;;;;;22.40;65.10;;;;;;5039914;28;44006;-63
2022/08/30 10:32:40;;;;;;;;;;;22.40;65.00;;;;;;5034995;28;44658;-62
2022/08/30 10:35:22;;;;;;;;;;;22.40;65.00;;;;;;5041105;28;43505;-62
2022/08/30 10:37:53;;;;;;;;;;;22.40;65.00;;;;;;5042316;28;43530;-63
2022/08/30 10:43:21;;;;;;;;;;;22.50;65.20;;;;;;5040741;28;44775;-63
2022/08/30 10:45:49;;;;;;;;;;;22.50;65.10;;;;;;5041658;28;43475;-63
2022/08/30 10:48:22;;;;;;;;;;;22.50;65.10;;;;;;5031317;28;43459;-62
2022/08/30 10:50:52;;;;;;;;;;;22.60;65.00;;;;;;5039647;28;43532;-63
2022/08/30 10:53:22;;;;;;;;;;;22.50;65.00;;;;;;5037446;28;44673;-63
2022/08/30 10:55:52;;;;;;;;;;;22.60;65.00;;;;;;5041964;28;43514;-62
2022/08/30 10:58:19;;;;;;;;;;;22.60;65.00;;;;;;5041419;28;43520;-63
2022/08/30 11:00:59;;;;;;;;;;;22.60;64.90;;;;;;5040201;28;43604;-63
2022/08/30 11:03:45;;;;;;;;;;;22.60;64.90;;;;;;5041887;28;44711;-63
2022/08/30 11:06:15;;;;;;;;;;;22.60;64.90;;;;;;5031241;28;43955;-62
2022/08/30 11:08:58;;;;;;;;;;;22.70;64.90;;;;;;5033273;28;43509;-63
2022/08/30 11:11:43;;;;;;;;;;;22.70;64.90;;;;;;5040023;28;43570;-63
2022/08/30 11:14:15;;;;;;;;;;;22.70;64.90;;;;;;5027237;28;44993;-63
2022/08/30 11:16:47;;;;;;;;;;;22.70;64.90;;;;;;5039177;28;43387;-62
2022/08/30 11:19:24;;;;;;;;;;;22.80;64.90;;;;;;5032689;28;43957;-61
2022/08/30 11:22:06;;;;;;;;;;;22.80;64.90;;;;;;5039771;28;43404;-63
2022/08/30 11:24:52;;;;;;;;;;;22.80;64.70;;;;;;5039242;28;44075;-63
2022/08/30 11:27:38;;;;;;;;;;;22.80;64.80;;;;;;5036598;28;43773;-63
2022/08/30 11:30:29;;;;;;;;;;;22.80;64.80;;;;;;5040711;28;43477;-62
2022/08/30 11:33:01;;;;;;;;;;;22.80;64.70;;;;;;5030034;28;43621;-63
2022/08/30 11:35:51;;;;;;;;;;;22.90;64.70;;;;;;5040206;28;44987;-62
2022/08/30 11:38:18;;;;;;;;;;;22.90;64.60;;;;;;5034007;28;43471;-62
2022/08/30 11:40:50;;;;;;;;;;;22.90;64.60;;;;;;5039766;28;43557;-63
2022/08/30 11:43:36;;;;;;;;;;;22.90;64.60;;;;;;5024602;28;43535;-62
2022/08/30 11:46:33;;;;;;;;;;;22.90;64.50;;;;;;5038065;28;45111;-63
2022/08/30 11:49:09;;;;;;;;;;;23.00;64.50;;;;;;5041653;28;43988;-62
2022/08/30 11:51:56;;;;;;;;;;;23.00;64.40;;;;;;5033402;28;43389;-63
2022/08/30 11:54:43;;;;;;;;;;;23.00;64.40;;;;;;5031142;28;43456;-63
2022/08/30 11:57:29;;;;;;;;;;;23.10;64.40;;;;;;5038042;28;43989;-63
2022/08/30 11:59:59;;;;;;;;;;;23.10;64.40;;;;;;5039888;28;43506;-62
2022/08/30 12:02:59;;;;;;;;;;;23.10;64.40;;;;;;5035367;28;43554;-62
2022/08/30 12:05:39;;;;;;;;;;;23.10;64.40;;;;;;5028396;28;43610;-63
2022/08/30 12:08:08;;;;;;;;;;;23.10;64.30;;;;;;5038761;28;45067;-63
2022/08/30 12:10:37;;;;;;;;;;;23.20;64.40;;;;;;5055108;28;44082;-62
2022/08/30 12:13:04;;;;;;;;;;;23.20;64.40;;;;;;5038258;28;44128;-63
2022/08/30 12:15:53;;;;;;;;;;;23.20;64.40;;;;;;5040288;28;43454;-62
2022/08/30 12:18:27;;;;;;;;;;;23.20;64.30;;;;;;5021806;28;44808;-62
2022/08/30 12:20:57;;;;;;;;;;;23.20;64.30;;;;;;5034721;28;43490;-62
2022/08/30 12:23:26;;;;;;;;;;;23.20;64.30;;;;;;5038734;28;44015;-63
2022/08/30 12:26:31;;;;;;;;;;;23.20;64.30;;;;;;5042270;28;43605;-62
2022/08/30 12:29:14;;;;;;;;;;;23.30;64.30;;;;;;4982660;28;44988;-62
2022/08/30 12:31:44;;;;;;;;;;;23.30;64.30;;;;;;4977588;28;43497;-63
2022/08/30 12:34:30;;;;;;;;;;;23.30;64.20;;;;;;5018949;28;43409;-62
2022/08/30 12:37:02;;;;;;;;;;;23.30;64.20;;;;;;5044732;28;43458;-62
2022/08/30 12:39:35;;;;;;;;;;;23.30;64.10;;;;;;5041494;28;44915;-62
2022/08/30 12:42:21;;;;;;;;;;;23.40;64.10;;;;;;5035987;28;43436;-63
2022/08/30 12:44:50;;;;;;;;;;;23.40;64.10;;;;;;5042884;28;43378;-63
2022/08/30 12:47:25;;;;;;;;;;;23.50;64.10;;;;;;5030445;28;43566;-63
2022/08/30 12:49:54;;;;;;;;;;;23.50;64.10;;;;;;5040704;28;44052;-62
2022/08/30 12:52:24;;;;;;;;;;;23.50;64.00;;;;;;5040117;28;43928;-62
2022/08/30 12:54:52;;;;;;;;;;;23.50;64.00;;;;;;5043909;28;43463;-63
2022/08/30 12:57:34;;;;;;;;;;;23.60;64.10;;;;;;5028750;28;44120;-62
2022/08/30 13:00:03;;;;;;;;;;;23.60;64.00;;;;;;5036382;28;44997;-62
2022/08/30 13:02:46;;;;;;;;;;;23.60;64.10;;;;;;5040887;28;43608;-62
2022/08/30 13:05:28;;;;;;;;;;;23.60;63.90;;;;;;5031520;28;43503;-62
2022/08/30 13:08:14;;;;;;;;;;;23.60;63.90;;;;;;5035595;28;43474;-62
2022/08/30 13:10:50;;;;;;;;;;;23.60;63.90;;;;;;5037091;28;44052;-62
2022/08/30 13:13:26;;;;;;;;;;;23.70;63.90;;;;;;5058419;28;43468;-62
2022/08/30 13:15:54;;;;;;;;;;;23.70;63.90;;;;;;5033042;28;43497;-62
2022/08/30 13:18:27;;;;;;;;;;;23.70;63.90;;;;;;5034949;28;43439;-62
2022/08/30 13:21:11;;;;;;;;;;;23.70;63.80;;;;;;5036366;28;44059;-62
2022/08/30 13:23:38;;;;;;;;;;;23.80;63.80;;;;;;5044029;28;43878;-62
2022/08/30 13:26:07;;;;;;;;;;;23.80;63.80;;;;;;5033497;28;43423;-62
2022/08/30 13:28:52;;;;;;;;;;;23.80;63.80;;;;;;5040937;28;43652;-62
2022/08/30 13:31:20;;;;;;;;;;;23.80;63.80;;;;;;5033790;28;44035;-62
2022/08/30 13:33:52;;;;;;;;;;;23.80;63.70;;;;;;5031360;28;43550;-62
2022/08/30 13:36:20;;;;;;;;;;;23.90;63.80;;;;;;5040886;28;43449;-62
2022/08/30 13:38:51;;;;;;;;;;;23.90;63.80;;;;;;5035246;28;43430;-63